createdAt,value
2018-09-16T00:01:14.399Z,2.97
2018-09-16T00:03:43.096Z,3.33
2018-09-16T00:06:11.793Z,2.80
2018-09-16T00:08:40.465Z,2.90
2018-09-16T00:11:09.172Z,2.70
2018-09-16T00:13:37.849Z,2.57
2018-09-16T00:16:06.639Z,2.77
2018-09-16T00:18:35.316Z,2.63
2018-09-16T00:21:04.014Z,2.70
2018-09-16T00:23:36.178Z,2.90
2018-09-16T00:26:04.851Z,2.70
2018-09-16T00:28:35.212Z,3.03
2018-09-16T00:31:04.616Z,3.23
2018-09-16T00:33:33.382Z,2.73
2018-09-16T00:36:02.629Z,2.40
2018-09-16T00:38:31.370Z,2.53
2018-09-16T00:41:00.052Z,2.90
2018-09-16T00:43:28.744Z,3.00
2018-09-16T00:45:57.501Z,3.17
2018-09-16T00:48:26.185Z,2.50
2018-09-16T00:50:54.888Z,2.80
2018-09-16T00:53:23.576Z,3.13
2018-09-16T00:58:36.147Z,3.00
2018-09-16T01:01:05.030Z,3.20
2018-09-16T01:03:33.753Z,2.80
2018-09-16T01:06:07.546Z,3.00
2018-09-16T01:08:38.150Z,3.60
2018-09-16T01:11:06.830Z,3.83
2018-09-16T01:13:35.622Z,3.23
2018-09-16T01:16:04.430Z,3.20
2018-09-16T01:18:33.138Z,3.43
2018-09-16T01:21:01.824Z,3.27
2018-09-16T01:23:30.529Z,3.33
2018-09-16T01:25:59.212Z,3.30
2018-09-16T01:28:27.990Z,3.30
2018-09-16T01:30:56.656Z,3.10
2018-09-16T01:33:25.532Z,3.33
2018-09-16T01:35:54.283Z,3.47
2018-09-16T01:38:23.952Z,3.90
2018-09-16T01:40:53.943Z,3.80
2018-09-16T01:43:22.640Z,3.43
2018-09-16T01:45:51.424Z,3.50
2018-09-16T01:48:20.138Z,3.30
2018-09-16T01:50:48.795Z,3.30
2018-09-16T01:53:17.455Z,3.20
2018-09-16T01:55:46.139Z,3.73
2018-09-16T01:58:14.833Z,3.67
2018-09-16T02:00:43.512Z,3.00
2018-09-16T02:03:12.205Z,3.47
2018-09-16T02:05:46.057Z,3.40
2018-09-16T02:08:14.797Z,3.60
2018-09-16T02:10:43.472Z,3.00
2018-09-16T02:13:12.170Z,3.30
2018-09-16T02:15:40.849Z,3.30
2018-09-16T02:18:09.494Z,3.20
2018-09-16T02:20:38.173Z,3.50
2018-09-16T02:23:06.937Z,2.80
2018-09-16T02:25:35.584Z,3.30
2018-09-16T02:28:04.351Z,3.37
2018-09-16T02:30:33.068Z,3.20
2018-09-16T02:33:01.941Z,3.27
2018-09-16T02:35:30.619Z,3.13
2018-09-16T02:37:59.283Z,3.20
2018-09-16T02:40:28.073Z,3.03
2018-09-16T02:42:56.703Z,3.30
2018-09-16T02:45:25.447Z,3.30
2018-09-16T02:47:54.126Z,3.00
2018-09-16T02:50:22.828Z,2.60
2018-09-16T02:52:51.532Z,2.60
2018-09-16T02:55:20.228Z,2.90
2018-09-16T02:57:48.961Z,3.00
2018-09-16T03:00:17.662Z,2.97
2018-09-16T03:02:46.336Z,2.63
2018-09-16T03:05:20.009Z,2.80
2018-09-16T03:07:48.769Z,2.80
2018-09-16T03:10:17.440Z,2.63
2018-09-16T03:12:46.226Z,2.50
2018-09-16T03:15:14.880Z,2.27
2018-09-16T03:17:43.547Z,2.27
2018-09-16T03:20:12.226Z,2.20
2018-09-16T03:22:40.877Z,2.40
2018-09-16T03:25:09.581Z,2.43
2018-09-16T03:27:38.243Z,2.50
2018-09-16T03:30:07.096Z,2.33
2018-09-16T03:32:35.765Z,2.43
2018-09-16T03:35:04.470Z,2.40
2018-09-16T03:37:33.132Z,2.40
2018-09-16T03:40:01.815Z,2.30
2018-09-16T03:42:30.495Z,2.80
2018-09-16T03:44:59.163Z,2.37
2018-09-16T03:47:27.828Z,2.57
2018-09-16T03:49:56.549Z,2.00
2018-09-16T03:52:25.259Z,2.00
2018-09-16T03:54:53.956Z,2.27
2018-09-16T03:57:22.621Z,2.03
2018-09-16T03:59:51.275Z,2.33
2018-09-16T04:02:19.944Z,2.20
2018-09-16T04:04:48.704Z,2.00
2018-09-16T04:07:17.341Z,2.20
2018-09-16T04:09:46.026Z,2.27
2018-09-16T04:12:14.717Z,2.10
2018-09-16T04:14:43.382Z,1.90
2018-09-16T04:17:12.100Z,2.27
2018-09-16T04:19:40.780Z,2.13
2018-09-16T04:22:09.442Z,2.10
2018-09-16T04:24:38.171Z,1.90
2018-09-16T04:27:06.871Z,2.03
2018-09-16T04:29:35.518Z,2.13
2018-09-16T04:32:04.283Z,1.83
2018-09-16T04:34:32.987Z,2.60
2018-09-16T04:37:01.695Z,1.97
2018-09-16T04:39:30.432Z,2.30
2018-09-16T04:41:59.069Z,2.27
2018-09-16T04:44:27.725Z,2.10
2018-09-16T04:46:56.428Z,2.10
2018-09-16T04:49:25.116Z,2.23
2018-09-16T04:51:53.842Z,2.27
2018-09-16T04:54:22.481Z,2.50
2018-09-16T04:56:51.147Z,2.30
2018-09-16T04:59:19.855Z,2.37
2018-09-16T05:01:48.532Z,2.57
2018-09-16T05:04:17.224Z,2.20
2018-09-16T05:06:45.873Z,2.23
2018-09-16T05:09:14.507Z,2.20
2018-09-16T05:11:43.176Z,2.47
2018-09-16T05:14:11.911Z,2.00
2018-09-16T05:16:40.632Z,1.97
2018-09-16T05:19:09.315Z,2.40
2018-09-16T05:21:38.059Z,2.63
2018-09-16T05:24:06.968Z,2.23
2018-09-16T05:26:35.626Z,2.07
2018-09-16T05:29:04.341Z,2.40
2018-09-16T05:31:33.127Z,1.97
2018-09-16T05:34:01.744Z,2.40
2018-09-16T05:36:30.492Z,2.10
2018-09-16T05:38:59.162Z,2.10
2018-09-16T05:41:27.837Z,2.27
2018-09-16T05:43:56.519Z,2.00
2018-09-16T05:46:25.210Z,2.30
2018-09-16T05:48:53.909Z,2.10
2018-09-16T05:51:22.588Z,2.37
2018-09-16T05:53:51.256Z,2.30
2018-09-16T05:56:19.965Z,2.30
2018-09-16T05:58:48.932Z,2.47
2018-09-16T06:01:17.677Z,2.50
2018-09-16T06:03:46.514Z,2.73
2018-09-16T06:06:15.235Z,2.47
2018-09-16T06:08:43.890Z,2.40
2018-09-16T06:11:12.594Z,2.50
2018-09-16T06:13:41.261Z,2.30
2018-09-16T06:16:09.936Z,2.50
2018-09-16T06:18:38.596Z,2.63
2018-09-16T06:21:07.295Z,2.80
2018-09-16T06:23:36.616Z,2.50
2018-09-16T06:26:05.363Z,2.60
2018-09-16T06:28:34.084Z,2.73
2018-09-16T06:31:02.772Z,2.70
2018-09-16T06:33:31.510Z,2.87
2018-09-16T06:36:00.144Z,3.07
2018-09-16T06:38:28.857Z,2.87
2018-09-16T06:40:57.548Z,2.70
2018-09-16T06:43:26.235Z,2.80
2018-09-16T06:45:55.031Z,2.50
2018-09-16T06:48:23.701Z,2.70
2018-09-16T06:50:52.424Z,2.80
2018-09-16T06:53:21.278Z,2.63
2018-09-16T06:55:50.003Z,2.70
2018-09-16T06:58:18.715Z,2.60
2018-09-16T07:00:47.526Z,2.80
2018-09-16T07:03:16.204Z,3.37
2018-09-16T07:05:45.044Z,3.20
2018-09-16T07:08:13.899Z,2.90
2018-09-16T07:10:42.525Z,3.10
2018-09-16T07:13:11.664Z,3.20
2018-09-16T07:15:40.344Z,3.30
2018-09-16T07:18:09.043Z,2.97
2018-09-16T07:20:37.936Z,3.10
2018-09-16T07:23:06.661Z,2.90
2018-09-16T07:25:35.350Z,3.27
2018-09-16T07:28:04.089Z,2.80
2018-09-16T07:30:32.774Z,3.80
2018-09-16T07:33:01.575Z,3.43
2018-09-16T07:35:30.356Z,3.47
2018-09-16T07:37:59.168Z,3.60
2018-09-16T07:40:27.851Z,3.70
2018-09-16T07:42:56.571Z,4.00
2018-09-16T07:45:25.339Z,3.77
2018-09-16T07:47:54.103Z,4.17
2018-09-16T07:50:22.817Z,4.10
2018-09-16T07:52:51.743Z,4.20
2018-09-16T07:55:20.499Z,4.37
2018-09-16T07:57:49.278Z,4.03
2018-09-16T08:00:18.765Z,3.83
2018-09-16T08:02:47.547Z,4.10
2018-09-16T08:05:18.368Z,4.20
2018-09-16T08:07:47.153Z,3.77
2018-09-16T08:10:15.914Z,4.67
2018-09-16T08:12:44.657Z,4.23
2018-09-16T08:15:13.478Z,4.90
2018-09-16T08:17:42.203Z,4.23
2018-09-16T08:20:11.015Z,4.03
2018-09-16T08:22:39.715Z,4.40
2018-09-16T08:25:08.508Z,4.63
2018-09-16T08:27:37.256Z,4.47
2018-09-16T08:30:06.606Z,4.03
2018-09-16T08:32:35.343Z,4.00
2018-09-16T08:35:05.933Z,4.87
2018-09-16T08:37:34.688Z,4.70
2018-09-16T08:40:03.470Z,4.77
2018-09-16T08:42:32.238Z,4.80
2018-09-16T08:45:00.936Z,4.53
2018-09-16T08:47:29.753Z,4.53
2018-09-16T08:49:58.595Z,5.23
2018-09-16T08:52:27.321Z,4.80
2018-09-16T08:54:56.248Z,5.60
2018-09-16T08:57:24.951Z,5.10
2018-09-16T08:59:53.716Z,5.50
2018-09-16T09:02:22.378Z,5.47
2018-09-16T09:04:51.079Z,5.50
2018-09-16T09:07:25.001Z,5.93
2018-09-16T09:09:53.730Z,5.30
2018-09-16T09:12:22.612Z,5.10
2018-09-16T09:14:52.213Z,5.87
2018-09-16T09:17:21.323Z,6.07
2018-09-16T09:19:50.122Z,5.70
2018-09-16T09:22:18.919Z,5.90
2018-09-16T09:24:47.709Z,5.63
2018-09-16T09:27:16.380Z,5.90
2018-09-16T09:29:45.063Z,6.27
2018-09-16T09:32:13.756Z,6.00
2018-09-16T09:34:42.435Z,6.03
2018-09-16T09:37:11.119Z,6.60
2018-09-16T09:39:39.835Z,6.57
2018-09-16T09:42:08.536Z,6.20
2018-09-16T09:44:37.229Z,6.10
2018-09-16T09:47:05.974Z,6.37
2018-09-16T09:49:34.653Z,6.30
2018-09-16T09:52:03.345Z,6.77
2018-09-16T09:54:32.072Z,6.30
2018-09-16T09:57:00.743Z,7.10
2018-09-16T09:59:29.455Z,6.33
2018-09-16T10:01:58.088Z,6.47
2018-09-16T10:04:26.885Z,6.97
2018-09-16T10:06:55.592Z,6.87
2018-09-16T10:09:24.313Z,6.83
2018-09-16T10:11:52.997Z,6.93
2018-09-16T10:14:21.744Z,7.57
2018-09-16T10:16:50.397Z,6.90
2018-09-16T10:19:19.097Z,6.70
2018-09-16T10:21:47.747Z,7.20
2018-09-16T10:24:16.442Z,6.47
2018-09-16T10:26:45.520Z,6.30
2018-09-16T10:29:14.184Z,6.47
2018-09-16T10:31:42.960Z,6.63
2018-09-16T10:34:11.672Z,6.57
2018-09-16T10:36:40.347Z,6.47
2018-09-16T10:39:10.531Z,5.87
2018-09-16T10:41:39.211Z,5.73
2018-09-16T10:44:07.991Z,6.03
2018-09-16T10:46:36.652Z,6.30
2018-09-16T10:49:05.313Z,6.10
2018-09-16T10:51:33.981Z,5.83
2018-09-16T10:54:02.655Z,6.13
2018-09-16T10:56:31.327Z,5.70
2018-09-16T10:59:00.010Z,6.17
2018-09-16T11:01:28.659Z,6.80
2018-09-16T11:03:57.340Z,6.80
2018-09-16T11:06:26.044Z,6.43
2018-09-16T11:08:54.782Z,7.03
2018-09-16T11:11:23.448Z,6.40
2018-09-16T11:13:52.101Z,6.67
2018-09-16T11:16:20.802Z,6.70
2018-09-16T11:18:49.511Z,6.57
2018-09-16T11:21:18.215Z,6.73
2018-09-16T11:23:46.888Z,7.30
2018-09-16T11:26:15.612Z,7.23
2018-09-16T11:28:44.336Z,7.00
2018-09-16T11:31:13.023Z,7.30
2018-09-16T11:33:41.736Z,7.23
2018-09-16T11:36:10.447Z,7.43
2018-09-16T11:38:39.159Z,7.53
2018-09-16T11:41:07.843Z,7.43
2018-09-16T11:43:36.554Z,7.27
2018-09-16T11:46:05.367Z,7.27
2018-09-16T11:48:34.197Z,6.70
2018-09-16T11:51:02.924Z,6.40
2018-09-16T11:53:31.716Z,6.50
2018-09-16T11:56:00.655Z,7.17
2018-09-16T11:58:29.544Z,6.53
2018-09-16T12:00:58.319Z,6.57
2018-09-16T12:03:27.144Z,6.00
2018-09-16T12:05:55.981Z,6.10
2018-09-16T12:08:24.837Z,6.30
2018-09-16T12:10:53.516Z,6.77
2018-09-16T12:13:22.228Z,6.47
2018-09-16T12:15:50.925Z,6.10
2018-09-16T12:18:19.587Z,6.10
2018-09-16T12:20:48.296Z,6.07
2018-09-16T12:23:16.980Z,5.90
2018-09-16T12:25:45.640Z,5.73
2018-09-16T12:28:14.381Z,5.17
2018-09-16T12:30:43.098Z,5.60
2018-09-16T12:33:12.685Z,4.97
2018-09-16T12:35:41.563Z,6.10
2018-09-16T12:38:10.445Z,6.93
2018-09-16T12:40:39.322Z,5.97
2018-09-16T12:43:08.255Z,7.03
2018-09-16T12:45:37.268Z,5.83
2018-09-16T12:48:06.092Z,5.77
2018-09-16T12:50:34.936Z,5.60
2018-09-16T12:53:03.843Z,5.50
2018-09-16T12:55:32.843Z,5.17
2018-09-16T12:58:01.697Z,5.33
2018-09-16T13:00:30.629Z,5.37
2018-09-16T13:02:59.415Z,5.33
2018-09-16T13:05:28.390Z,5.60
2018-09-16T13:07:57.190Z,4.93
2018-09-16T13:10:26.036Z,5.60
2018-09-16T13:12:54.940Z,5.77
2018-09-16T13:15:23.824Z,5.63
2018-09-16T13:17:52.762Z,5.97
2018-09-16T13:20:21.703Z,6.07
2018-09-16T13:22:50.986Z,5.87
2018-09-16T13:25:19.819Z,6.00
2018-09-16T13:27:48.590Z,5.80
2018-09-16T13:30:17.572Z,5.60
2018-09-16T13:32:46.517Z,5.17
2018-09-16T13:35:15.324Z,5.13
2018-09-16T13:37:44.127Z,4.67
2018-09-16T13:40:12.944Z,4.50
2018-09-16T13:42:41.777Z,4.60
2018-09-16T13:45:10.543Z,4.57
2018-09-16T13:47:39.524Z,4.43
2018-09-16T13:50:08.982Z,4.37
2018-09-16T13:52:37.721Z,4.13
2018-09-16T13:55:06.765Z,3.63
2018-09-16T13:57:35.476Z,3.90
2018-09-16T14:00:04.336Z,3.40
2018-09-16T14:02:33.173Z,3.60
2018-09-16T14:05:01.879Z,4.13
2018-09-16T14:07:30.629Z,3.60
2018-09-16T14:09:59.388Z,3.40
2018-09-16T14:12:28.116Z,3.37
2018-09-16T14:14:56.825Z,2.90
2018-09-16T14:17:25.562Z,2.80
2018-09-16T14:19:54.397Z,3.50
2018-09-16T14:22:23.348Z,3.33
2018-09-16T14:24:51.973Z,3.23
2018-09-16T14:27:20.768Z,3.20
2018-09-16T14:29:49.500Z,3.03
2018-09-16T14:32:18.216Z,3.20
2018-09-16T14:34:46.989Z,3.50
2018-09-16T14:37:15.723Z,3.00
2018-09-16T14:39:44.522Z,2.53
2018-09-16T14:42:13.259Z,2.97
2018-09-16T14:44:41.992Z,2.80
2018-09-16T14:47:11.002Z,3.10
2018-09-16T14:49:39.740Z,3.47
2018-09-16T14:52:08.487Z,3.27
2018-09-16T14:54:37.173Z,3.50
2018-09-16T14:57:05.883Z,4.00
2018-09-16T14:59:34.577Z,3.40
2018-09-16T15:02:03.305Z,3.77
2018-09-16T15:04:32.049Z,4.10
2018-09-16T15:07:00.749Z,3.70
2018-09-16T15:09:29.538Z,3.83
2018-09-16T15:11:58.513Z,3.87
2018-09-16T15:14:27.216Z,3.27
2018-09-16T15:16:55.972Z,3.90
2018-09-16T15:19:24.718Z,3.83
2018-09-16T15:21:53.465Z,2.63
2018-09-16T15:24:22.245Z,2.73
2018-09-16T15:26:50.952Z,2.30
2018-09-16T15:29:19.686Z,3.10
2018-09-16T15:31:48.445Z,2.77
2018-09-16T15:34:17.212Z,2.70
2018-09-16T15:36:45.995Z,2.30
2018-09-16T15:39:14.703Z,2.60
2018-09-16T15:41:43.476Z,1.70
2018-09-16T15:44:12.123Z,1.30
2018-09-16T15:46:40.859Z,1.40
2018-09-16T15:49:09.602Z,1.40
2018-09-16T15:51:38.337Z,1.30
2018-09-16T15:54:07.408Z,1.90
2018-09-16T15:56:36.124Z,1.47
2018-09-16T15:59:04.867Z,1.60
2018-09-16T16:01:33.576Z,1.70
2018-09-16T16:04:02.376Z,1.80
2018-09-16T16:06:31.049Z,1.80
2018-09-16T16:08:59.822Z,1.70
2018-09-16T16:11:28.542Z,1.70
2018-09-16T16:13:57.347Z,1.30
2018-09-16T16:16:26.174Z,1.70
2018-09-16T16:18:54.987Z,1.13
2018-09-16T16:21:23.797Z,1.60
2018-09-16T16:23:52.613Z,1.80
2018-09-16T16:26:21.494Z,1.67
2018-09-16T16:28:50.191Z,1.80
2018-09-16T16:31:18.951Z,2.03
2018-09-16T16:33:47.861Z,2.30
2018-09-16T16:36:16.612Z,2.70
2018-09-16T16:38:45.380Z,2.93
2018-09-16T16:41:14.225Z,3.03
2018-09-16T16:43:43.052Z,2.70
2018-09-16T16:46:11.831Z,2.30
2018-09-16T16:48:40.512Z,2.67
2018-09-16T16:51:09.195Z,2.10
2018-09-16T16:53:37.905Z,1.93
2018-09-16T16:56:06.571Z,2.50
2018-09-16T16:58:35.297Z,1.87
2018-09-16T17:01:04.040Z,1.90
2018-09-16T17:03:32.750Z,2.00
2018-09-16T17:06:01.485Z,2.20
2018-09-16T17:08:30.181Z,2.30
2018-09-16T17:10:58.940Z,3.03
2018-09-16T17:13:27.770Z,1.87
2018-09-16T17:15:56.621Z,2.37
2018-09-16T17:18:25.357Z,2.33
2018-09-16T17:20:54.147Z,2.60
2018-09-16T17:23:22.943Z,2.00
2018-09-16T17:25:51.756Z,2.40
2018-09-16T17:28:20.514Z,2.50
2018-09-16T17:30:49.565Z,2.80
2018-09-16T17:33:18.375Z,2.27
2018-09-16T17:35:47.467Z,2.53
2018-09-16T17:38:16.176Z,3.70
2018-09-16T17:40:45.017Z,3.27
2018-09-16T17:43:13.799Z,3.00
2018-09-16T17:45:42.575Z,3.67
2018-09-16T17:48:11.378Z,3.53
2018-09-16T17:50:40.139Z,4.00
2018-09-16T17:53:08.911Z,3.37
2018-09-16T17:55:37.837Z,3.50
2018-09-16T17:58:06.572Z,3.53
2018-09-16T18:00:35.428Z,3.80
2018-09-16T18:03:04.220Z,4.00
2018-09-16T18:05:33.020Z,4.07
2018-09-16T18:08:01.804Z,3.70
2018-09-16T18:10:30.768Z,3.40
2018-09-16T18:12:59.443Z,2.67
2018-09-16T18:15:28.158Z,2.80
2018-09-16T18:17:57.019Z,3.20
2018-09-16T18:20:25.859Z,3.33
2018-09-16T18:22:54.543Z,3.80
2018-09-16T18:25:23.224Z,3.10
2018-09-16T18:27:51.872Z,3.40
2018-09-16T18:30:20.608Z,3.60
2018-09-16T18:32:49.467Z,3.60
2018-09-16T18:35:18.280Z,4.20
2018-09-16T18:37:47.144Z,3.67
2018-09-16T18:40:15.900Z,4.23
2018-09-16T18:42:44.584Z,3.23
2018-09-16T18:45:13.249Z,3.37
2018-09-16T18:47:41.912Z,3.50
2018-09-16T18:50:10.574Z,3.03
2018-09-16T18:52:39.223Z,3.07
2018-09-16T18:55:07.935Z,3.40
2018-09-16T18:57:36.835Z,4.00
2018-09-16T19:00:05.639Z,4.30
2018-09-16T19:02:34.300Z,4.70
2018-09-16T19:05:02.985Z,4.27
2018-09-16T19:07:31.713Z,4.93
2018-09-16T19:10:00.431Z,4.37
2018-09-16T19:12:29.644Z,4.60
2018-09-16T19:14:58.316Z,4.23
2018-09-16T19:17:26.998Z,4.90
2018-09-16T19:19:56.005Z,4.87
2018-09-16T19:22:24.643Z,4.50
2018-09-16T19:24:53.364Z,4.90
2018-09-16T19:27:22.055Z,4.80
2018-09-16T19:29:50.796Z,4.03
2018-09-16T19:32:19.663Z,4.87
2018-09-16T19:34:48.325Z,4.70
2018-09-16T19:37:17.061Z,4.43
2018-09-16T19:39:45.767Z,5.03
2018-09-16T19:42:14.482Z,4.70
2018-09-16T19:44:43.184Z,4.90
2018-09-16T19:47:11.868Z,5.33
2018-09-16T19:49:40.575Z,5.03
2018-09-16T19:52:09.355Z,5.00
2018-09-16T19:54:38.058Z,4.77
2018-09-16T19:57:06.844Z,4.90
2018-09-16T19:59:35.553Z,4.80
2018-09-16T20:02:04.284Z,4.70
2018-09-16T20:04:32.992Z,4.40
2018-09-16T20:07:02.042Z,4.43
2018-09-16T20:09:30.765Z,5.10
2018-09-16T20:11:59.424Z,5.10
2018-09-16T20:14:28.098Z,5.13
2018-09-16T20:16:56.787Z,4.37
2018-09-16T20:19:25.515Z,4.10
2018-09-16T20:21:54.251Z,4.60
2018-09-16T20:24:22.956Z,4.73
2018-09-16T20:26:51.757Z,4.63
2018-09-16T20:29:20.477Z,4.77
2018-09-16T20:31:49.187Z,4.67
2018-09-16T20:34:17.869Z,4.70
2018-09-16T20:36:46.615Z,4.70
2018-09-16T20:39:15.293Z,4.97
2018-09-16T20:41:43.976Z,4.70
2018-09-16T20:44:12.680Z,4.43
2018-09-16T20:46:41.372Z,4.40
2018-09-16T20:49:10.067Z,4.27
2018-09-16T20:51:38.795Z,4.30
2018-09-16T20:54:07.521Z,4.57
2018-09-16T20:56:36.271Z,4.90
2018-09-16T20:59:05.144Z,5.40
2018-09-16T21:01:33.870Z,5.97
2018-09-16T21:04:03.056Z,5.77
2018-09-16T21:06:31.952Z,5.00
2018-09-16T21:09:00.775Z,5.30
2018-09-16T21:11:30.226Z,5.23
2018-09-16T21:13:58.944Z,5.27
2018-09-16T21:16:27.684Z,5.27
2018-09-16T21:18:56.412Z,5.53
2018-09-16T21:21:25.645Z,5.40
2018-09-16T21:23:54.423Z,5.70
2018-09-16T21:26:23.372Z,5.77
2018-09-16T21:28:51.968Z,6.43
2018-09-16T21:31:20.649Z,6.30
2018-09-16T21:33:49.378Z,5.70
2018-09-16T21:36:18.175Z,5.70
2018-09-16T21:38:46.865Z,5.83
2018-09-16T21:41:15.672Z,6.00
2018-09-16T21:43:44.443Z,6.40
2018-09-16T21:46:13.130Z,6.13
2018-09-16T21:48:41.843Z,3.70
2018-09-16T21:51:10.704Z,3.50
2018-09-16T21:53:39.395Z,3.60
2018-09-16T21:56:08.120Z,3.17
2018-09-16T21:58:36.868Z,3.33
2018-09-16T22:01:05.569Z,3.50
2018-09-16T22:03:34.308Z,3.57
2018-09-16T22:06:03.018Z,3.33
2018-09-16T22:08:31.804Z,5.20
2018-09-16T22:11:00.486Z,3.60
2018-09-16T22:13:29.296Z,3.70
2018-09-16T22:15:58.003Z,3.70
2018-09-16T22:18:26.729Z,4.03
2018-09-16T22:20:55.531Z,4.00
2018-09-16T22:23:24.240Z,3.90
2018-09-16T22:25:53.267Z,4.30
2018-09-16T22:28:21.940Z,4.90
2018-09-16T22:30:50.625Z,4.60
2018-09-16T22:33:19.323Z,5.23
2018-09-16T22:35:48.048Z,4.97
2018-09-16T22:38:16.749Z,5.17
2018-09-16T22:40:45.415Z,5.10
2018-09-16T22:43:14.153Z,5.20
2018-09-16T22:45:42.820Z,5.00
2018-09-16T22:48:11.504Z,4.97
2018-09-16T22:50:40.172Z,4.33
2018-09-16T22:53:08.852Z,5.07
2018-09-16T22:55:37.617Z,4.50
2018-09-16T22:58:06.306Z,3.90
2018-09-16T23:00:35.035Z,4.10
2018-09-16T23:03:03.877Z,3.83
2018-09-16T23:05:32.704Z,3.70
2018-09-16T23:08:01.442Z,3.60
2018-09-16T23:10:30.116Z,3.60
2018-09-16T23:12:58.783Z,3.73
2018-09-16T23:15:27.488Z,3.43
2018-09-16T23:17:56.195Z,3.73
2018-09-16T23:20:24.862Z,3.50
2018-09-16T23:22:53.601Z,3.67
2018-09-16T23:25:22.306Z,3.63
2018-09-16T23:27:50.987Z,3.80
2018-09-16T23:30:19.705Z,4.00
2018-09-16T23:32:48.388Z,4.07
2018-09-16T23:35:17.133Z,4.57
2018-09-16T23:37:45.815Z,4.50
2018-09-16T23:40:14.530Z,4.40
2018-09-16T23:42:43.182Z,4.63
2018-09-16T23:45:11.923Z,5.10
2018-09-16T23:47:40.564Z,4.63
2018-09-16T23:50:09.263Z,4.90
2018-09-16T23:52:37.975Z,4.63
2018-09-16T23:55:06.792Z,4.50
2018-09-16T23:57:35.446Z,4.97
